Archival Weather

Republic

Farmingdale, New York (KFRG)

Report from: Thursday, January 25, 2024 1:53 PM EST
Current time: Monday, June 17, 2024 4:25 AM EDT

Current weather – Weather history – Daily summaries
Weather forecast

Temperature14.4°C (57.9°F)
Dew point12.2°C (54.0°F)
Winds 4 kts (2.1 m/s, 4.6 mph) North (350°)
Visibility9 mi. (14.5 km)
Clouds Scattered clouds 1,100 ft. (335 m)
Ceiling: Overcast 5,000 ft. (1,524 m)
Altimeter30.09 in.Hg (1019 mB)
Relative humidity87 %
Density altitude-70 ft. (-21 m)
Sea-level pressure101.9 kPa (1019 mB, 30.09 in.Hg)
Remarks Automated weather observing station with precipitation discriminator
Flight conditions Visual Meteorological Conditions
Raw dataKFRG 251853Z 35004KT 9SM SCT011 OVC050 14/12 A3009 RMK AO2 SLP191 T01440122
An error has occurred. This application may no longer respond until reloaded. Reload 🗙